createdAt,value
2022-08-09T00:00:04.529Z,6.63
2022-08-09T00:02:42.792Z,6.78
2022-08-09T00:06:17.818Z,7.03
2022-08-09T00:08:10.066Z,7.00
2022-08-09T00:10:38.551Z,6.63
2022-08-09T00:13:12.873Z,5.85
2022-08-09T00:15:58.118Z,6.75
2022-08-09T00:18:29.024Z,6.18
2022-08-09T00:20:55.682Z,6.15
2022-08-09T00:23:55.379Z,5.97
2022-08-09T00:26:08.802Z,5.90
2022-08-09T00:28:38.560Z,5.90
2022-08-09T00:31:30.750Z,5.95
2022-08-09T00:33:53.956Z,5.93
2022-08-09T00:36:22.237Z,5.78
2022-08-09T00:38:53.980Z,5.63
2022-08-09T00:44:13.330Z,5.65
2022-08-09T00:44:26.866Z,5.85
2022-08-09T00:47:04.421Z,5.78
2022-08-09T00:49:32.491Z,5.90
2022-08-09T00:52:05.354Z,5.40
2022-08-09T00:54:36.436Z,5.65
2022-08-09T00:57:08.896Z,5.60
2022-08-09T00:59:46.107Z,6.07
2022-08-09T01:02:20.846Z,5.68
2022-08-09T01:05:03.559Z,5.75
2022-08-09T01:08:08.742Z,5.72
2022-08-09T01:11:04.372Z,5.90
2022-08-09T01:13:53.330Z,6.07
2022-08-09T01:16:25.131Z,6.30
2022-08-09T01:19:02.678Z,5.85
2022-08-09T01:21:57.490Z,5.97
2022-08-09T01:24:50.445Z,6.05
2022-08-09T01:30:00.722Z,6.80
2022-08-09T01:32:34.065Z,6.30
2022-08-09T01:35:28.471Z,6.35
2022-08-09T01:38:07.924Z,6.28
2022-08-09T01:40:43.869Z,6.78
2022-08-09T01:43:11.996Z,6.70
2022-08-09T01:45:44.807Z,6.43
2022-08-09T01:48:16.331Z,6.25
2022-08-09T01:50:49.214Z,6.60
2022-08-09T01:53:29.251Z,6.63
2022-08-09T01:56:11.087Z,6.45
2022-08-09T01:58:38.806Z,6.70
2022-08-09T02:01:07.867Z,6.57
2022-08-09T02:03:36.596Z,6.80
2022-08-09T02:06:06.823Z,6.60
2022-08-09T02:08:57.345Z,6.10
2022-08-09T02:11:42.213Z,6.85
2022-08-09T02:14:15.720Z,6.70
2022-08-09T02:17:07.152Z,6.93
2022-08-09T02:19:43.260Z,6.85
2022-08-09T02:22:17.107Z,6.70
2022-08-09T02:24:51.823Z,7.00
2022-08-09T02:27:42.994Z,6.70
2022-08-09T02:30:09.436Z,6.63
2022-08-09T02:32:42.879Z,7.18
2022-08-09T02:35:46.407Z,6.85
2022-08-09T02:38:12.352Z,6.70
2022-08-09T02:40:58.295Z,7.43
2022-08-09T02:43:28.839Z,7.47
2022-08-09T02:45:58.540Z,7.70
2022-08-09T02:48:30.755Z,7.45
2022-08-09T02:51:02.434Z,7.05
2022-08-09T02:53:52.790Z,7.30
2022-08-09T02:56:30.371Z,7.43
2022-08-09T02:58:58.131Z,7.45
2022-08-09T03:01:42.612Z,7.32
2022-08-09T03:04:19.418Z,7.05
2022-08-09T03:06:48.900Z,7.20
2022-08-09T03:09:17.201Z,7.50
2022-08-09T03:12:05.425Z,7.00
2022-08-09T03:14:32.190Z,7.72
2022-08-09T03:17:02.629Z,7.70
2022-08-09T03:19:59.278Z,7.50
2022-08-09T03:22:25.648Z,7.88
2022-08-09T03:25:06.707Z,7.70
2022-08-09T03:27:49.304Z,7.38
2022-08-09T03:30:30.196Z,7.60
2022-08-09T03:33:12.843Z,7.30
2022-08-09T03:36:12.342Z,7.43
2022-08-09T03:38:31.400Z,7.68
2022-08-09T03:40:58.138Z,7.68
2022-08-09T03:43:25.501Z,7.68
2022-08-09T03:46:05.049Z,7.43
2022-08-09T03:48:51.445Z,8.10
2022-08-09T03:51:57.643Z,7.40
2022-08-09T03:54:11.154Z,8.40
2022-08-09T03:56:41.702Z,8.23
2022-08-09T03:59:17.269Z,8.05
2022-08-09T04:01:50.132Z,7.68
2022-08-09T04:04:18.081Z,7.88
2022-08-09T04:06:49.165Z,7.80
2022-08-09T04:09:47.912Z,7.80
2022-08-09T04:12:12.024Z,7.80
2022-08-09T04:15:01.770Z,7.60
2022-08-09T04:17:29.786Z,7.97
2022-08-09T04:19:56.717Z,8.38
2022-08-09T04:22:23.640Z,7.90
2022-08-09T04:24:50.644Z,8.50
2022-08-09T04:27:17.531Z,8.10
2022-08-09T04:32:16.834Z,8.82
2022-08-09T04:34:54.341Z,8.82
2022-08-09T04:37:24.063Z,8.82
2022-08-09T04:40:11.592Z,9.00
2022-08-09T04:42:45.929Z,8.88
2022-08-09T04:45:16.425Z,8.57
2022-08-09T04:48:00.876Z,8.70
2022-08-09T04:50:32.003Z,8.50
2022-08-09T04:53:11.714Z,9.05
2022-08-09T04:55:58.048Z,9.13
2022-08-09T04:58:27.457Z,9.50
2022-08-09T05:00:55.171Z,9.05
2022-08-09T05:03:40.434Z,8.73
2022-08-09T05:06:11.332Z,9.02
2022-08-09T05:08:38.217Z,9.60
2022-08-09T05:11:06.709Z,9.07
2022-08-09T05:13:38.732Z,9.15
2022-08-09T05:18:37.955Z,9.60
2022-08-09T05:21:24.641Z,10.07
2022-08-09T05:24:00.973Z,9.55
2022-08-09T05:26:37.210Z,9.35
2022-08-09T05:29:22.818Z,9.32
2022-08-09T05:31:57.737Z,9.38
2022-08-09T05:34:31.030Z,9.55
2022-08-09T05:37:05.194Z,9.88
2022-08-09T05:39:43.831Z,9.52
2022-08-09T05:42:21.330Z,9.60
2022-08-09T05:44:50.678Z,9.98
2022-08-09T05:47:18.919Z,9.82
2022-08-09T05:50:24.349Z,10.35
2022-08-09T05:52:32.073Z,10.30
2022-08-09T05:55:03.120Z,10.10
2022-08-09T05:57:55.302Z,10.35
2022-08-09T06:00:21.972Z,10.40
2022-08-09T06:02:49.078Z,10.70
2022-08-09T06:05:20.991Z,11.20
2022-08-09T06:08:08.959Z,10.40
2022-08-09T06:10:38.894Z,10.45
2022-08-09T06:13:18.292Z,10.88
2022-08-09T06:15:46.957Z,10.90
2022-08-09T06:18:14.126Z,10.77
2022-08-09T06:20:42.610Z,10.43
2022-08-09T06:23:12.021Z,11.20
2022-08-09T06:25:42.064Z,10.98
2022-08-09T06:28:09.886Z,11.32
2022-08-09T06:30:37.120Z,10.68
2022-08-09T06:33:30.027Z,11.35
2022-08-09T06:35:57.360Z,10.60
2022-08-09T06:38:32.190Z,10.50
2022-08-09T06:41:18.082Z,10.38
2022-08-09T06:43:46.440Z,10.57
2022-08-09T06:46:39.145Z,10.27
2022-08-09T06:49:00.397Z,10.30
2022-08-09T06:51:27.067Z,10.32
2022-08-09T06:53:55.157Z,10.73
2022-08-09T06:56:21.696Z,10.95
2022-08-09T07:00:54.988Z,10.85
2022-08-09T07:01:54.545Z,10.20
2022-08-09T07:04:27.146Z,11.38
2022-08-09T07:07:00.474Z,10.85
2022-08-09T07:09:54.955Z,10.70
2022-08-09T07:12:18.093Z,11.38
2022-08-09T07:14:51.409Z,10.95
2022-08-09T07:17:20.214Z,10.63
2022-08-09T07:19:50.833Z,10.60
2022-08-09T07:22:18.545Z,11.30
2022-08-09T07:24:54.515Z,11.30
2022-08-09T07:27:26.970Z,10.93
2022-08-09T07:30:01.711Z,10.50
2022-08-09T07:32:31.826Z,11.10
2022-08-09T07:34:59.295Z,10.63
2022-08-09T07:37:25.820Z,10.95
2022-08-09T07:39:53.640Z,10.60
2022-08-09T07:42:24.289Z,11.57
2022-08-09T07:45:01.812Z,11.52
2022-08-09T07:47:39.542Z,10.82
2022-08-09T07:50:16.183Z,10.60
2022-08-09T07:52:43.673Z,11.07
2022-08-09T07:55:14.101Z,11.05
2022-08-09T07:57:47.278Z,10.70
2022-08-09T08:00:35.838Z,10.32
2022-08-09T08:03:04.623Z,10.40
2022-08-09T08:05:54.176Z,10.10
2022-08-09T08:09:01.418Z,10.23
2022-08-09T08:12:09.796Z,10.40
2022-08-09T08:13:56.978Z,10.05
2022-08-09T08:16:29.681Z,10.43
2022-08-09T08:18:58.675Z,10.10
2022-08-09T08:21:25.436Z,10.02
2022-08-09T08:23:56.208Z,9.77
2022-08-09T08:26:26.639Z,9.50
2022-08-09T08:29:08.244Z,10.13
2022-08-09T08:32:02.331Z,9.68
2022-08-09T08:34:25.300Z,9.38
2022-08-09T08:36:52.310Z,9.93
2022-08-09T08:39:18.912Z,9.55
2022-08-09T08:41:52.423Z,9.68
2022-08-09T08:44:27.165Z,9.18
2022-08-09T08:47:02.421Z,9.43
2022-08-09T08:49:46.326Z,8.63
2022-08-09T08:52:50.433Z,8.68
2022-08-09T08:55:05.944Z,7.20
2022-08-09T08:57:35.136Z,7.15
2022-08-09T09:00:12.600Z,6.97
2022-08-09T09:02:52.236Z,7.68
2022-08-09T09:05:32.941Z,6.90
2022-08-09T09:08:30.296Z,8.20
2022-08-09T09:11:02.513Z,7.65
2022-08-09T09:13:41.901Z,6.90
2022-08-09T09:16:17.695Z,7.00
2022-08-09T09:19:15.749Z,6.05
2022-08-09T09:22:05.026Z,5.55
2022-08-09T09:24:43.949Z,5.32
2022-08-09T09:28:02.973Z,5.00
2022-08-09T09:30:34.548Z,5.00
2022-08-09T09:33:16.496Z,5.22
2022-08-09T09:36:01.565Z,5.00
2022-08-09T09:38:47.189Z,4.70
2022-08-09T09:41:32.899Z,4.30
2022-08-09T09:44:12.147Z,4.53
2022-08-09T09:46:46.131Z,4.80
2022-08-09T09:49:32.257Z,4.50
2022-08-09T09:52:35.836Z,3.80
2022-08-09T09:55:16.276Z,4.43
2022-08-09T09:58:15.620Z,4.35
2022-08-09T10:00:59.182Z,4.32
2022-08-09T10:03:40.477Z,4.40
2022-08-09T10:06:09.420Z,3.60
2022-08-09T10:08:54.608Z,3.80
2022-08-09T10:12:01.446Z,4.00
2022-08-09T10:14:30.406Z,4.07
2022-08-09T10:17:11.257Z,3.58
2022-08-09T10:19:45.844Z,3.80
2022-08-09T10:22:12.841Z,3.90
2022-08-09T10:24:40.361Z,3.65
2022-08-09T10:27:10.403Z,3.65
2022-08-09T10:30:16.548Z,3.40
2022-08-09T10:32:42.309Z,3.70
2022-08-09T10:35:09.866Z,3.22
2022-08-09T10:37:38.976Z,3.17
2022-08-09T10:40:07.061Z,3.60
2022-08-09T10:42:38.809Z,3.30
2022-08-09T10:45:11.878Z,3.38
2022-08-09T10:48:14.489Z,3.17
2022-08-09T10:51:10.084Z,3.30
2022-08-09T10:54:03.677Z,2.97
2022-08-09T10:56:34.305Z,3.03
2022-08-09T10:59:31.248Z,3.10
2022-08-09T11:03:13.091Z,3.15
2022-08-09T11:05:25.340Z,2.85
2022-08-09T11:07:59.414Z,2.97
2022-08-09T11:10:59.000Z,3.15
2022-08-09T11:16:41.036Z,3.17
2022-08-09T11:19:10.464Z,2.92
2022-08-09T11:21:57.365Z,3.08
2022-08-09T11:25:10.266Z,3.28
2022-08-09T11:28:03.634Z,2.90
2022-08-09T11:30:35.726Z,3.30
2022-08-09T11:33:15.457Z,3.25
2022-08-09T11:35:55.621Z,2.85
2022-08-09T11:38:34.826Z,2.92
2022-08-09T11:41:13.110Z,2.97
2022-08-09T11:43:47.104Z,3.00
2022-08-09T11:46:26.523Z,3.00
2022-08-09T11:49:00.863Z,3.15
2022-08-09T11:53:01.014Z,3.10
2022-08-09T11:55:52.519Z,3.13
2022-08-09T11:58:30.408Z,3.08
2022-08-09T12:01:15.736Z,3.00
2022-08-09T12:04:00.527Z,3.20
2022-08-09T12:06:32.338Z,3.30
2022-08-09T12:09:01.662Z,3.08
2022-08-09T12:11:29.263Z,3.08
2022-08-09T12:14:09.818Z,2.90
2022-08-09T12:16:41.676Z,2.88
2022-08-09T12:19:12.187Z,2.95
2022-08-09T12:22:03.027Z,2.83
2022-08-09T12:24:29.687Z,3.10
2022-08-09T12:29:14.152Z,2.80
2022-08-09T12:30:01.515Z,2.90
2022-08-09T12:32:41.094Z,2.90
2022-08-09T12:35:11.032Z,2.72
2022-08-09T12:37:49.681Z,2.90
2022-08-09T12:40:18.555Z,3.42
2022-08-09T12:42:46.437Z,3.38
2022-08-09T12:45:34.323Z,3.00
2022-08-09T12:48:07.831Z,3.10
2022-08-09T12:50:38.885Z,3.03
2022-08-09T12:53:38.651Z,3.20
2022-08-09T12:56:44.258Z,3.10
2022-08-09T12:59:16.929Z,3.00
2022-08-09T13:01:49.843Z,3.40
2022-08-09T13:04:33.340Z,3.30
2022-08-09T13:07:50.121Z,3.40
2022-08-09T13:10:16.921Z,3.40
2022-08-09T13:13:09.012Z,2.92
2022-08-09T13:15:35.376Z,3.20
2022-08-09T13:18:09.665Z,3.33
2022-08-09T13:21:04.174Z,3.00
2022-08-09T13:24:42.392Z,3.15
2022-08-09T13:26:43.549Z,3.10
2022-08-09T13:29:19.282Z,2.80
2022-08-09T13:32:17.133Z,2.70
2022-08-09T13:34:46.510Z,3.05
2022-08-09T13:37:15.010Z,3.22
2022-08-09T13:41:51.050Z,2.95
2022-08-09T13:42:49.365Z,3.00
2022-08-09T13:45:16.972Z,3.40
2022-08-09T13:47:52.765Z,3.33
2022-08-09T13:50:30.371Z,3.20
2022-08-09T13:52:58.639Z,3.20
2022-08-09T13:55:28.930Z,3.05
2022-08-09T13:57:58.410Z,3.17
2022-08-09T14:00:28.603Z,3.20
2022-08-09T14:03:02.753Z,3.50
2022-08-09T14:06:01.121Z,3.17
2022-08-09T14:08:30.318Z,3.10
2022-08-09T14:10:57.907Z,3.20
2022-08-09T14:14:16.221Z,3.20
2022-08-09T14:16:16.281Z,3.10
2022-08-09T14:18:49.572Z,3.10
2022-08-09T14:21:23.223Z,3.10
2022-08-09T14:23:55.201Z,3.08
2022-08-09T14:26:30.479Z,3.00
2022-08-09T14:29:07.893Z,3.08
2022-08-09T14:31:53.746Z,3.33
2022-08-09T14:34:31.645Z,3.13
2022-08-09T14:37:06.651Z,3.20
2022-08-09T14:39:45.851Z,3.05
2022-08-09T14:42:28.470Z,2.90
2022-08-09T14:45:01.516Z,3.40
2022-08-09T14:47:49.574Z,3.10
2022-08-09T14:50:24.347Z,3.10
2022-08-09T14:52:51.085Z,2.72
2022-08-09T14:55:19.925Z,3.30
2022-08-09T14:57:47.045Z,3.00
2022-08-09T15:00:13.670Z,3.05
2022-08-09T15:02:40.281Z,3.10
2022-08-09T15:05:07.892Z,3.30
2022-08-09T15:07:35.362Z,2.90
2022-08-09T15:10:13.999Z,3.42
2022-08-09T15:12:44.660Z,3.20
2022-08-09T15:15:11.312Z,3.10
2022-08-09T15:17:42.528Z,3.10
2022-08-09T15:20:15.328Z,3.13
2022-08-09T15:24:01.407Z,2.88
2022-08-09T15:25:52.719Z,3.20
2022-08-09T15:28:26.165Z,3.20
2022-08-09T15:31:00.928Z,3.30
2022-08-09T15:34:31.827Z,3.33
2022-08-09T15:36:28.406Z,3.22
2022-08-09T15:38:57.261Z,3.10
2022-08-09T15:41:31.308Z,3.35
2022-08-09T15:44:03.738Z,3.30
2022-08-09T15:46:34.278Z,3.65
2022-08-09T15:52:03.375Z,3.35
2022-08-09T15:54:44.889Z,3.35
2022-08-09T15:57:19.112Z,3.25
2022-08-09T16:00:00.487Z,3.20
2022-08-09T16:02:27.467Z,3.20
2022-08-09T16:04:54.283Z,3.17
2022-08-09T16:07:20.852Z,3.40
2022-08-09T16:09:57.953Z,3.15
2022-08-09T16:12:32.604Z,3.30
2022-08-09T16:15:00.273Z,3.10
2022-08-09T16:17:28.849Z,3.00
2022-08-09T16:20:08.821Z,3.70
2022-08-09T16:22:42.361Z,3.57
2022-08-09T16:25:10.892Z,3.13
2022-08-09T16:27:38.209Z,3.17
2022-08-09T16:30:15.360Z,3.13
2022-08-09T16:33:09.999Z,3.42
2022-08-09T16:35:56.666Z,3.20
2022-08-09T16:38:24.781Z,3.10
2022-08-09T16:40:51.904Z,2.97
2022-08-09T16:43:18.574Z,3.28
2022-08-09T16:45:48.108Z,3.28
2022-08-09T16:48:37.914Z,3.30
2022-08-09T16:51:07.484Z,3.20
2022-08-09T16:53:35.196Z,3.10
2022-08-09T16:56:07.536Z,3.40
2022-08-09T16:58:37.584Z,3.20
2022-08-09T17:01:07.352Z,3.50
2022-08-09T17:03:34.732Z,3.30
2022-08-09T17:06:06.930Z,3.17
2022-08-09T17:08:46.676Z,3.10
2022-08-09T17:11:41.351Z,3.20
2022-08-09T17:14:25.881Z,2.90
2022-08-09T17:16:53.788Z,3.40
2022-08-09T17:19:20.992Z,3.42
2022-08-09T17:21:55.519Z,3.15
2022-08-09T17:24:27.545Z,3.05
2022-08-09T17:26:56.952Z,3.22
2022-08-09T17:29:25.068Z,3.10
2022-08-09T17:32:00.203Z,3.30
2022-08-09T17:35:07.483Z,3.20
2022-08-09T17:37:19.750Z,3.20
2022-08-09T17:39:53.767Z,3.33
2022-08-09T17:42:41.553Z,3.10
2022-08-09T17:45:16.201Z,2.97
2022-08-09T17:47:55.849Z,3.30
2022-08-09T17:50:36.965Z,3.20
2022-08-09T17:53:19.710Z,3.20
2022-08-09T17:55:57.004Z,3.30
2022-08-09T17:58:27.358Z,3.30
2022-08-09T18:00:58.383Z,3.20
2022-08-09T18:03:25.996Z,3.63
2022-08-09T18:08:27.638Z,3.50
2022-08-09T18:11:01.678Z,3.47
2022-08-09T18:13:53.755Z,3.40
2022-08-09T18:16:16.686Z,3.28
2022-08-09T18:18:49.123Z,3.50
2022-08-09T18:21:23.521Z,3.13
2022-08-09T18:24:10.522Z,3.38
2022-08-09T18:26:38.585Z,3.10
2022-08-09T18:30:39.959Z,3.58
2022-08-09T18:32:03.014Z,3.30
2022-08-09T18:34:31.541Z,3.10
2022-08-09T18:36:58.444Z,3.20
2022-08-09T18:39:25.625Z,3.22
2022-08-09T18:41:58.943Z,3.45
2022-08-09T18:44:26.014Z,3.30
2022-08-09T18:47:08.155Z,3.45
2022-08-09T18:49:41.710Z,3.40
2022-08-09T18:52:13.083Z,3.50
2022-08-09T18:54:49.558Z,3.45
2022-08-09T18:57:19.769Z,3.30
2022-08-09T18:59:54.536Z,3.42
2022-08-09T19:02:32.038Z,3.40
2022-08-09T19:05:14.488Z,3.28
2022-08-09T19:08:04.473Z,2.97
2022-08-09T19:10:37.136Z,2.80
2022-08-09T19:13:19.764Z,3.05
2022-08-09T19:15:52.193Z,2.70
2022-08-09T19:18:33.291Z,2.70
2022-08-09T19:21:09.674Z,2.30
2022-08-09T19:24:32.797Z,2.65
2022-08-09T19:26:30.962Z,2.80
2022-08-09T19:29:01.681Z,2.90
2022-08-09T19:33:58.112Z,3.15
2022-08-09T19:36:31.022Z,2.67
2022-08-09T19:39:01.266Z,2.30
2022-08-09T19:41:33.097Z,2.70
2022-08-09T19:44:03.166Z,2.83
2022-08-09T19:46:50.279Z,2.80
2022-08-09T19:50:08.174Z,2.60
2022-08-09T19:52:03.790Z,2.78
2022-08-09T19:54:30.699Z,2.75
2022-08-09T19:56:58.980Z,2.80
2022-08-09T19:59:57.246Z,2.78
2022-08-09T20:04:10.756Z,2.78
2022-08-09T20:05:11.760Z,2.80
2022-08-09T20:07:59.204Z,3.17
2022-08-09T20:10:34.286Z,2.70
2022-08-09T20:13:02.943Z,2.90
2022-08-09T20:16:33.000Z,2.60
2022-08-09T20:18:18.686Z,3.00
2022-08-09T20:20:46.581Z,2.90
2022-08-09T20:23:15.604Z,2.80
2022-08-09T20:25:51.651Z,2.50
2022-08-09T20:28:34.055Z,2.90
2022-08-09T20:31:04.942Z,2.67
2022-08-09T20:33:39.185Z,2.80
2022-08-09T20:36:08.948Z,2.55
2022-08-09T20:39:07.115Z,2.50
2022-08-09T20:41:34.974Z,2.70
2022-08-09T20:44:04.541Z,2.70
2022-08-09T20:46:43.904Z,2.78
2022-08-09T20:49:13.471Z,3.03
2022-08-09T20:51:41.306Z,2.90
2022-08-09T20:54:12.417Z,2.90
2022-08-09T20:56:39.634Z,2.83
2022-08-09T20:59:10.397Z,2.90
2022-08-09T21:01:50.839Z,3.20
2022-08-09T21:05:54.618Z,4.53
2022-08-09T21:07:11.677Z,6.43
2022-08-09T21:09:45.616Z,7.90
2022-08-09T21:12:22.955Z,8.35
2022-08-09T21:14:50.094Z,7.65
2022-08-09T21:18:22.167Z,7.68
2022-08-09T21:20:22.375Z,6.57
2022-08-09T21:22:54.571Z,5.85
2022-08-09T21:25:44.461Z,5.90
2022-08-09T21:28:34.598Z,11.32
2022-08-09T21:31:17.698Z,9.85
2022-08-09T21:33:52.100Z,5.68
2022-08-09T21:36:28.697Z,4.30
2022-08-09T21:38:59.237Z,3.90
2022-08-09T21:42:03.930Z,3.50
2022-08-09T21:44:33.766Z,3.50
2022-08-09T21:47:05.647Z,3.55
2022-08-09T21:49:40.301Z,9.05
2022-08-09T21:52:17.829Z,5.07
2022-08-09T21:55:03.047Z,4.00
2022-08-09T21:57:39.262Z,3.30
2022-08-09T22:00:25.451Z,3.20
2022-08-09T22:02:58.177Z,2.92
2022-08-09T22:05:35.763Z,2.95
2022-08-09T22:08:13.210Z,2.85
2022-08-09T22:11:50.358Z,2.80
2022-08-09T22:13:31.580Z,3.20
2022-08-09T22:16:03.597Z,2.80
2022-08-09T22:18:32.990Z,2.70
2022-08-09T22:21:00.480Z,2.90
2022-08-09T22:23:27.196Z,2.90
2022-08-09T22:26:05.282Z,2.83
2022-08-09T22:28:47.203Z,2.58
2022-08-09T22:31:20.740Z,2.90
2022-08-09T22:33:55.107Z,2.80
2022-08-09T22:36:22.036Z,3.00
2022-08-09T22:38:48.815Z,3.05
2022-08-09T22:41:16.092Z,2.95
2022-08-09T22:44:02.059Z,3.05
2022-08-09T22:48:10.150Z,2.95
2022-08-09T22:49:16.282Z,2.60
2022-08-09T22:51:49.257Z,2.67
2022-08-09T22:54:16.944Z,2.70
2022-08-09T22:56:50.896Z,2.90
2022-08-09T22:59:57.638Z,2.70
2022-08-09T23:02:11.351Z,3.00
2022-08-09T23:08:22.916Z,2.75
2022-08-09T23:10:26.258Z,2.70
2022-08-09T23:12:52.768Z,2.90
2022-08-09T23:15:19.257Z,3.00
2022-08-09T23:17:45.772Z,2.95
2022-08-09T23:20:12.308Z,2.95
2022-08-09T23:22:39.096Z,2.85
2022-08-09T23:25:06.478Z,3.10
2022-08-09T23:27:33.511Z,3.00
2022-08-09T23:30:00.263Z,3.20
2022-08-09T23:32:26.793Z,3.13
2022-08-09T23:34:53.350Z,3.20
2022-08-09T23:37:21.478Z,3.40
2022-08-09T23:39:49.512Z,3.05
2022-08-09T23:42:16.124Z,3.22
2022-08-09T23:44:42.712Z,3.10
2022-08-09T23:47:09.256Z,3.20
2022-08-09T23:49:35.768Z,3.30
2022-08-09T23:52:02.304Z,3.10
2022-08-09T23:54:28.837Z,3.00
2022-08-09T23:56:58.350Z,3.05
2022-08-09T23:59:25.665Z,3.17
